createdAt,value
2024-04-25T00:01:46.155Z,8.85
2024-04-25T00:04:15.902Z,15.00
2024-04-25T00:06:45.581Z,14.40
2024-04-25T00:09:15.455Z,9.25
2024-04-25T00:11:45.162Z,12.52
2024-04-25T00:14:14.927Z,13.40
2024-04-25T00:16:44.655Z,7.43
2024-04-25T00:19:14.424Z,16.95
2024-04-25T00:21:46.305Z,17.80
2024-04-25T00:24:17.553Z,16.67
2024-04-25T00:26:50.310Z,9.07
2024-04-25T00:29:20.030Z,14.80
2024-04-25T00:31:49.900Z,7.72
2024-04-25T00:34:19.873Z,10.30
2024-04-25T00:36:49.630Z,8.73
2024-04-25T00:39:19.473Z,15.38
2024-04-25T00:41:49.150Z,11.82
2024-04-25T00:44:18.762Z,9.55
2024-04-25T00:46:49.186Z,10.43
2024-04-25T00:49:20.313Z,9.82
2024-04-25T00:51:50.800Z,7.30
2024-04-25T00:54:20.950Z,13.57
2024-04-25T00:56:51.163Z,11.20
2024-04-25T00:59:23.986Z,11.55
2024-04-25T01:01:55.230Z,11.40
2024-04-25T01:04:28.019Z,9.18
2024-04-25T01:07:01.141Z,8.60
2024-04-25T01:09:31.444Z,10.55
2024-04-25T01:12:01.975Z,10.93
2024-04-25T01:14:32.530Z,11.25
2024-04-25T01:17:02.270Z,6.27
2024-04-25T01:19:32.008Z,7.25
2024-04-25T01:22:01.645Z,8.45
2024-04-25T01:24:32.496Z,11.30
2024-04-25T01:27:03.675Z,8.65
2024-04-25T01:29:35.079Z,7.82
2024-04-25T01:34:36.021Z,10.38
2024-04-25T01:37:05.735Z,12.95
2024-04-25T01:39:35.398Z,12.98
2024-04-25T01:42:05.104Z,11.82
2024-04-25T01:44:34.846Z,13.75
2024-04-25T01:47:04.706Z,17.40
2024-04-25T01:49:34.471Z,14.68
2024-04-25T01:52:04.165Z,17.17
2024-04-25T01:54:33.893Z,15.70
2024-04-25T01:57:03.864Z,11.07
2024-04-25T01:59:33.623Z,12.68
2024-04-25T02:02:03.374Z,19.70
2024-04-25T02:04:33.066Z,12.85
2024-04-25T02:07:02.835Z,12.38
2024-04-25T02:09:32.561Z,14.82
2024-04-25T02:12:02.419Z,15.07
2024-04-25T02:14:32.823Z,9.63
2024-04-25T02:17:02.535Z,8.85
2024-04-25T02:19:32.280Z,8.68
2024-04-25T02:22:17.861Z,16.23
2024-04-25T02:25:18.148Z,16.23
2024-04-25T02:27:48.851Z,12.48
2024-04-25T02:30:18.553Z,9.82
2024-04-25T02:32:48.280Z,10.85
2024-04-25T02:35:17.999Z,6.05
2024-04-25T02:37:47.751Z,13.23
2024-04-25T02:40:17.588Z,8.48
2024-04-25T02:42:44.650Z,13.43
2024-04-25T02:45:14.446Z,8.02
2024-04-25T02:47:41.617Z,9.93
2024-04-25T02:50:12.833Z,10.70
2024-04-25T02:52:39.854Z,12.65
2024-04-25T02:55:09.973Z,10.73
2024-04-25T02:57:37.023Z,12.38
2024-04-25T03:00:06.974Z,8.07
2024-04-25T03:02:34.157Z,15.77
2024-04-25T03:05:04.039Z,16.98
2024-04-25T03:07:31.129Z,9.55
2024-04-25T03:10:01.134Z,11.77
2024-04-25T03:12:30.777Z,13.27
2024-04-25T03:15:00.572Z,9.30
2024-04-25T03:17:27.823Z,9.30
2024-04-25T03:19:57.647Z,10.35
2024-04-25T03:22:24.800Z,9.75
2024-04-25T03:24:54.501Z,12.70
2024-04-25T03:27:21.595Z,23.27
2024-04-25T03:29:51.559Z,12.15
2024-04-25T03:32:18.588Z,11.23
2024-04-25T03:34:48.249Z,12.70
2024-04-25T03:37:17.843Z,12.05
2024-04-25T03:39:47.561Z,10.77
2024-04-25T03:42:17.220Z,12.55
2024-04-25T03:44:46.943Z,10.45
2024-04-25T03:47:17.230Z,11.82
2024-04-25T03:49:47.027Z,12.77
2024-04-25T03:52:16.814Z,9.18
2024-04-25T03:54:46.516Z,10.13
2024-04-25T03:57:16.430Z,8.90
2024-04-25T03:59:46.310Z,12.98
2024-04-25T04:02:16.657Z,16.27
2024-04-25T04:04:46.359Z,10.90
2024-04-25T04:07:16.445Z,13.30
2024-04-25T04:09:46.186Z,10.18
2024-04-25T04:12:16.031Z,9.88
2024-04-25T04:14:45.808Z,14.10
2024-04-25T04:17:15.637Z,9.00
2024-04-25T04:19:45.580Z,17.80
2024-04-25T04:22:15.252Z,10.82
2024-04-25T04:24:44.892Z,12.70
2024-04-25T04:27:14.551Z,13.35
2024-04-25T04:29:44.428Z,18.05
2024-04-25T04:32:14.179Z,16.75
2024-04-25T04:34:45.859Z,9.02
2024-04-25T04:37:16.032Z,11.27
2024-04-25T04:39:45.777Z,12.00
2024-04-25T04:42:15.808Z,10.73
2024-04-25T04:44:47.604Z,12.82
2024-04-25T04:47:18.943Z,11.45
2024-04-25T04:49:48.693Z,10.95
2024-04-25T04:52:19.922Z,15.45
2024-04-25T04:54:49.705Z,12.80
2024-04-25T04:57:19.372Z,14.23
2024-04-25T04:59:49.034Z,13.32
2024-04-25T05:02:18.807Z,13.55
2024-04-25T05:04:48.683Z,14.05
2024-04-25T05:07:18.272Z,23.45
2024-04-25T05:09:47.957Z,19.88
2024-04-25T05:12:17.853Z,13.43
2024-04-25T05:14:47.591Z,9.02
2024-04-25T05:17:17.304Z,12.07
2024-04-25T05:19:47.002Z,19.80
2024-04-25T05:22:17.068Z,13.70
2024-04-25T05:24:46.806Z,13.50
2024-04-25T05:27:16.590Z,16.40
2024-04-25T05:29:46.321Z,11.00
2024-04-25T05:32:16.042Z,8.85
2024-04-25T05:34:46.991Z,14.82
2024-04-25T05:37:16.709Z,11.90
2024-04-25T05:39:46.434Z,19.95
2024-04-25T05:42:16.089Z,14.43
2024-04-25T05:44:49.252Z,10.43
2024-04-25T05:47:19.666Z,8.10
2024-04-25T05:49:50.780Z,11.15
2024-04-25T05:52:21.382Z,9.13
2024-04-25T05:54:51.308Z,13.33
2024-04-25T05:57:21.666Z,18.98
2024-04-25T05:59:51.390Z,10.63
2024-04-25T06:02:21.127Z,11.90
2024-04-25T06:04:50.925Z,8.63
2024-04-25T06:07:20.663Z,12.30
2024-04-25T06:09:50.544Z,8.38
2024-04-25T06:12:20.506Z,10.27
2024-04-25T06:14:50.513Z,10.02
2024-04-25T06:17:20.187Z,14.65
2024-04-25T06:19:50.136Z,11.68
2024-04-25T06:22:19.806Z,7.97
2024-04-25T06:24:49.648Z,9.90
2024-04-25T06:27:19.416Z,12.70
2024-04-25T06:29:49.230Z,12.40
2024-04-25T06:32:19.077Z,14.93
2024-04-25T06:34:48.859Z,9.40
2024-04-25T06:37:18.521Z,10.75
2024-04-25T06:39:48.363Z,8.95
2024-04-25T06:42:18.285Z,17.40
2024-04-25T06:44:53.293Z,14.73
2024-04-25T06:47:24.027Z,16.85
2024-04-25T06:49:53.911Z,11.95
2024-04-25T06:52:24.527Z,8.98
2024-04-25T06:54:55.205Z,12.27
2024-04-25T06:57:24.950Z,12.85
2024-04-25T06:59:54.952Z,16.10
2024-04-25T07:02:24.913Z,14.63
2024-04-25T07:04:58.529Z,10.15
2024-04-25T07:07:26.997Z,15.27
2024-04-25T07:09:56.664Z,15.23
2024-04-25T07:12:26.398Z,19.05
2024-04-25T07:14:56.175Z,19.58
2024-04-25T07:17:26.039Z,12.27
2024-04-25T07:19:55.824Z,16.02
2024-04-25T07:22:25.547Z,16.00
2024-04-25T07:24:55.480Z,23.08
2024-04-25T07:27:25.263Z,14.15
2024-04-25T07:29:55.942Z,17.35
2024-04-25T07:32:25.954Z,15.00
2024-04-25T07:34:55.791Z,11.88
2024-04-25T07:37:27.365Z,16.35
2024-04-25T07:42:28.367Z,12.80
2024-04-25T07:44:58.775Z,10.77
2024-04-25T07:47:28.707Z,13.13
2024-04-25T07:49:58.459Z,15.35
2024-04-25T07:52:30.147Z,12.65
2024-04-25T07:55:01.592Z,12.48
2024-04-25T07:57:31.656Z,14.75
2024-04-25T08:00:01.431Z,11.82
2024-04-25T08:02:31.250Z,15.43
2024-04-25T08:05:00.995Z,22.40
2024-04-25T08:07:30.781Z,22.58
2024-04-25T08:10:00.697Z,14.65
2024-04-25T08:12:32.048Z,13.45
2024-04-25T08:15:01.730Z,13.18
2024-04-25T08:17:31.794Z,10.63
2024-04-25T08:20:01.600Z,9.35
2024-04-25T08:22:32.162Z,9.60
2024-04-25T08:25:04.805Z,8.13
2024-04-25T08:27:35.318Z,7.35
2024-04-25T08:30:05.110Z,13.25
2024-04-25T08:32:34.949Z,9.25
2024-04-25T08:35:04.665Z,4.88
2024-04-25T08:37:35.259Z,10.15
2024-04-25T08:40:05.209Z,11.82
2024-04-25T08:42:36.027Z,10.07
2024-04-25T08:45:05.747Z,12.33
2024-04-25T08:47:37.573Z,9.82
2024-04-25T08:50:11.853Z,10.23
2024-04-25T08:52:45.166Z,9.73
2024-04-25T08:55:19.532Z,5.85
2024-04-25T08:57:49.301Z,6.53
2024-04-25T09:00:19.944Z,8.98
2024-04-25T09:02:54.967Z,4.47
2024-04-25T09:05:28.520Z,10.20
2024-04-25T09:07:58.567Z,8.20
2024-04-25T09:10:28.516Z,8.35
2024-04-25T09:12:58.242Z,10.38
2024-04-25T09:15:28.736Z,6.80
2024-04-25T09:18:02.785Z,10.30
2024-04-25T09:20:34.432Z,10.00
2024-04-25T09:25:36.830Z,14.43
2024-04-25T09:28:06.893Z,9.93
2024-04-25T09:30:37.026Z,9.60
2024-04-25T09:33:09.001Z,13.02
2024-04-25T09:35:47.382Z,6.15
2024-04-25T09:38:17.205Z,4.93
2024-04-25T09:40:51.699Z,3.88
2024-04-25T09:43:22.868Z,7.63
2024-04-25T09:45:54.021Z,6.18
2024-04-25T09:48:24.978Z,4.90
2024-04-25T09:51:00.902Z,6.38
2024-04-25T09:53:30.747Z,10.35
2024-04-25T09:56:04.205Z,4.35
2024-04-25T09:58:55.140Z,10.80
2024-04-25T10:01:26.083Z,3.93
2024-04-25T10:03:56.907Z,6.47
2024-04-25T10:06:27.320Z,3.38
2024-04-25T10:08:58.718Z,4.18
2024-04-25T10:11:32.593Z,3.67
2024-04-25T10:14:02.825Z,2.22
2024-04-25T10:16:32.706Z,2.85
2024-04-25T10:19:02.574Z,2.58
2024-04-25T10:21:32.380Z,2.80
2024-04-25T10:24:11.570Z,8.52
2024-04-25T10:26:41.461Z,8.05
2024-04-25T10:29:11.351Z,6.78
2024-04-25T10:31:43.081Z,3.65
2024-04-25T10:34:13.382Z,7.55
2024-04-25T10:36:43.092Z,4.18
2024-04-25T10:39:18.203Z,3.08
2024-04-25T10:41:48.222Z,9.18
2024-04-25T10:44:18.386Z,6.22
2024-04-25T10:46:48.303Z,6.07
2024-04-25T10:49:18.340Z,4.88
2024-04-25T10:51:48.295Z,3.95
2024-04-25T10:54:18.202Z,9.25
2024-04-25T10:56:47.963Z,2.95
2024-04-25T10:59:17.729Z,5.28
2024-04-25T11:01:48.089Z,4.22
2024-04-25T11:04:17.853Z,6.57
2024-04-25T11:06:49.147Z,5.03
2024-04-25T11:09:20.141Z,17.35
2024-04-25T11:11:50.073Z,5.05
2024-04-25T11:14:20.593Z,5.65
2024-04-25T11:16:50.322Z,3.40
2024-04-25T11:19:26.396Z,5.07
2024-04-25T11:21:57.360Z,5.75
2024-04-25T11:24:27.588Z,4.80
2024-04-25T11:27:00.947Z,6.85
2024-04-25T11:29:30.925Z,3.33
2024-04-25T11:32:01.078Z,6.60
2024-04-25T11:34:30.858Z,2.45
2024-04-25T11:37:09.206Z,3.47
2024-04-25T11:39:40.490Z,6.50
2024-04-25T11:42:12.806Z,5.93
2024-04-25T11:44:43.351Z,4.25
2024-04-25T11:47:14.220Z,14.00
2024-04-25T11:49:44.012Z,7.95
2024-04-25T11:52:15.671Z,8.32
2024-04-25T11:54:45.490Z,12.73
2024-04-25T11:57:15.184Z,2.85
2024-04-25T11:59:44.921Z,3.90
2024-04-25T12:02:15.659Z,5.28
2024-04-25T12:04:45.459Z,2.03
2024-04-25T12:07:15.323Z,5.63
2024-04-25T12:09:45.055Z,7.53
2024-04-25T12:12:15.615Z,6.57
2024-04-25T12:14:45.799Z,3.90
2024-04-25T12:17:15.566Z,2.95
2024-04-25T12:19:45.338Z,4.35
2024-04-25T12:22:16.495Z,4.15
2024-04-25T12:24:46.183Z,4.47
2024-04-25T12:27:15.801Z,2.85
2024-04-25T12:29:45.798Z,15.63
2024-04-25T12:32:15.644Z,4.68
2024-04-25T12:34:45.630Z,3.65
2024-04-25T12:37:15.234Z,2.83
2024-04-25T12:39:44.967Z,3.60
2024-04-25T12:42:14.698Z,3.33
2024-04-25T12:44:44.495Z,5.68
2024-04-25T12:47:15.454Z,5.88
2024-04-25T12:49:45.544Z,5.15
2024-04-25T12:52:15.424Z,2.78
2024-04-25T12:54:45.306Z,7.82
2024-04-25T12:57:22.044Z,7.30
2024-04-25T12:59:54.547Z,8.50
2024-04-25T13:02:24.508Z,6.05
2024-04-25T13:04:54.911Z,3.70
2024-04-25T13:07:24.620Z,5.05
2024-04-25T13:09:54.423Z,12.75
2024-04-25T13:12:25.295Z,10.52
2024-04-25T13:14:55.104Z,6.32
2024-04-25T13:17:24.992Z,8.13
2024-04-25T13:19:54.895Z,6.60
2024-04-25T13:22:24.539Z,16.27
2024-04-25T13:24:54.382Z,7.18
2024-04-25T13:27:24.093Z,10.38
2024-04-25T13:29:54.176Z,3.80
2024-04-25T13:32:24.461Z,8.55
2024-04-25T13:34:56.150Z,7.40
2024-04-25T13:37:26.115Z,10.38
2024-04-25T13:39:56.919Z,5.15
2024-04-25T13:42:26.819Z,6.97
2024-04-25T13:44:56.577Z,5.68
2024-04-25T13:47:26.636Z,2.67
2024-04-25T13:49:56.542Z,9.50
2024-04-25T13:52:26.791Z,4.35
2024-04-25T13:54:56.462Z,6.32
2024-04-25T13:57:27.020Z,4.10
2024-04-25T13:59:56.740Z,9.25
2024-04-25T14:02:26.522Z,3.35
2024-04-25T14:04:56.431Z,4.80
2024-04-25T14:07:26.188Z,5.68
2024-04-25T14:09:55.946Z,5.97
2024-04-25T14:12:29.367Z,6.30
2024-04-25T14:14:59.732Z,6.35
2024-04-25T14:17:29.473Z,6.22
2024-04-25T14:19:59.610Z,5.00
2024-04-25T14:22:29.807Z,9.65
2024-04-25T14:25:19.645Z,6.00
2024-04-25T14:28:01.652Z,6.50
2024-04-25T14:30:33.370Z,11.80
2024-04-25T14:33:03.838Z,3.67
2024-04-25T14:35:34.113Z,4.53
2024-04-25T14:38:03.874Z,18.30
2024-04-25T14:40:33.617Z,6.38
2024-04-25T14:43:03.321Z,6.95
2024-04-25T14:45:33.023Z,6.68
2024-04-25T14:48:02.944Z,5.63
2024-04-25T14:50:32.720Z,6.38
2024-04-25T14:53:03.217Z,5.25
2024-04-25T14:55:33.532Z,8.60
2024-04-25T14:58:03.276Z,5.57
2024-04-25T15:00:32.973Z,5.60
2024-04-25T15:03:02.677Z,7.07
2024-04-25T15:05:32.389Z,4.38
2024-04-25T15:08:02.460Z,6.93
2024-04-25T15:10:33.871Z,6.18
2024-04-25T15:13:04.129Z,6.78
2024-04-25T15:15:34.533Z,4.85
2024-04-25T15:18:04.448Z,8.27
2024-04-25T15:20:34.389Z,8.05
2024-04-25T15:23:04.608Z,5.20
2024-04-25T15:25:34.307Z,7.47
2024-04-25T15:28:04.558Z,6.03
2024-04-25T15:30:35.209Z,7.28
2024-04-25T15:33:05.131Z,5.47
2024-04-25T15:35:34.924Z,8.82
2024-04-25T15:38:04.626Z,5.93
2024-04-25T15:40:34.343Z,7.13
2024-04-25T15:43:04.076Z,12.07
2024-04-25T15:45:33.740Z,9.43
2024-04-25T15:48:03.702Z,9.70
2024-04-25T15:50:33.506Z,14.07
2024-04-25T15:53:04.628Z,7.68
2024-04-25T15:55:37.207Z,5.00
2024-04-25T15:58:07.077Z,12.27
2024-04-25T16:00:36.846Z,10.77
2024-04-25T16:03:06.846Z,10.20
2024-04-25T16:05:36.706Z,8.32
2024-04-25T16:08:06.533Z,8.30
2024-04-25T16:10:36.446Z,13.02
2024-04-25T16:13:06.155Z,8.27
2024-04-25T16:15:35.875Z,5.80
2024-04-25T16:18:06.221Z,6.57
2024-04-25T16:20:36.049Z,6.63
2024-04-25T16:23:05.914Z,15.38
2024-04-25T16:25:35.615Z,10.95
2024-04-25T16:28:05.377Z,9.10
2024-04-25T16:30:35.103Z,8.63
2024-04-25T16:33:04.959Z,6.43
2024-04-25T16:35:35.038Z,5.88
2024-04-25T16:38:04.759Z,16.63
2024-04-25T16:40:35.739Z,15.57
2024-04-25T16:43:05.659Z,9.13
2024-04-25T16:45:35.429Z,3.28
2024-04-25T16:48:05.238Z,5.25
2024-04-25T16:50:35.009Z,6.20
2024-04-25T16:53:04.812Z,12.10
2024-04-25T16:55:34.500Z,6.55
2024-04-25T16:58:04.246Z,4.40
2024-04-25T17:00:34.018Z,7.95
2024-04-25T17:03:04.156Z,5.80
2024-04-25T17:05:34.307Z,8.95
2024-04-25T17:08:04.599Z,6.55
2024-04-25T17:10:34.300Z,11.90
2024-04-25T17:13:06.060Z,8.50
2024-04-25T17:15:35.695Z,6.13
2024-04-25T17:18:05.525Z,5.78
2024-04-25T17:20:35.508Z,8.23
2024-04-25T17:23:06.354Z,7.15
2024-04-25T17:25:36.125Z,4.75
2024-04-25T17:28:06.145Z,5.60
2024-04-25T17:30:35.810Z,9.20
2024-04-25T17:33:05.707Z,5.78
2024-04-25T17:35:35.571Z,5.82
2024-04-25T17:38:05.320Z,6.60
2024-04-25T17:40:35.152Z,8.07
2024-04-25T17:43:04.876Z,5.45
2024-04-25T17:45:34.617Z,6.65
2024-04-25T17:48:04.443Z,9.73
2024-04-25T17:50:34.277Z,16.63
2024-04-25T17:53:06.527Z,6.70
2024-04-25T17:55:36.189Z,8.63
2024-04-25T17:58:05.936Z,6.18
2024-04-25T18:00:37.277Z,5.55
2024-04-25T18:03:08.309Z,12.20
2024-04-25T18:05:39.085Z,6.22
2024-04-25T18:08:12.602Z,9.70
2024-04-25T18:10:45.506Z,9.75
2024-04-25T18:13:15.242Z,4.50
2024-04-25T18:15:45.072Z,4.13
2024-04-25T18:18:14.922Z,3.15
2024-04-25T18:20:45.464Z,6.47
2024-04-25T18:23:18.470Z,6.72
2024-04-25T18:25:50.726Z,5.18
2024-04-25T18:28:23.586Z,8.25
2024-04-25T18:30:53.386Z,5.07
2024-04-25T18:33:23.221Z,3.78
2024-04-25T18:35:53.934Z,3.25
2024-04-25T18:38:23.711Z,4.63
2024-04-25T18:40:50.833Z,3.47
2024-04-25T18:43:20.753Z,3.33
2024-04-25T18:45:51.140Z,12.15
2024-04-25T18:48:21.007Z,2.83
2024-04-25T18:50:51.054Z,4.05
2024-04-25T18:53:22.755Z,6.90
2024-04-25T18:55:56.312Z,3.60
2024-04-25T18:58:26.031Z,3.08
2024-04-25T19:00:55.813Z,8.35
2024-04-25T19:03:26.462Z,4.25
2024-04-25T19:05:56.276Z,6.93
2024-04-25T19:08:26.032Z,10.52
2024-04-25T19:10:55.818Z,7.88
2024-04-25T19:13:26.307Z,5.88
2024-04-25T19:15:56.223Z,8.98
2024-04-25T19:18:27.739Z,4.30
2024-04-25T19:21:01.221Z,4.85
2024-04-25T19:23:30.983Z,4.93
2024-04-25T19:26:00.734Z,3.67
2024-04-25T19:28:30.447Z,4.55
2024-04-25T19:31:02.846Z,4.22
2024-04-25T19:33:36.661Z,3.38
2024-04-25T19:36:07.151Z,3.47
2024-04-25T19:38:36.916Z,3.17
2024-04-25T19:41:08.844Z,2.70
2024-04-25T19:43:38.560Z,1.67
2024-04-25T19:46:12.948Z,4.03
2024-04-25T19:48:43.610Z,4.10
2024-04-25T19:51:13.534Z,5.88
2024-04-25T19:53:45.228Z,2.60
2024-04-25T19:56:15.704Z,4.35
2024-04-25T19:58:46.667Z,2.22
2024-04-25T20:01:18.134Z,2.95
2024-04-25T20:03:46.387Z,5.20
2024-04-25T20:06:20.784Z,6.50
2024-04-25T20:08:50.723Z,2.83
2024-04-25T20:11:22.036Z,3.40
2024-04-25T20:13:51.902Z,3.72
2024-04-25T20:16:21.881Z,6.15
2024-04-25T20:19:07.349Z,3.15
2024-04-25T20:21:43.319Z,1.52
2024-04-25T20:24:13.411Z,3.47
2024-04-25T20:26:43.216Z,3.05
2024-04-25T20:29:10.322Z,6.57
2024-04-25T20:31:40.162Z,1.42
2024-04-25T20:34:10.121Z,5.15
2024-04-25T20:36:39.961Z,6.40
2024-04-25T20:39:09.756Z,2.88
2024-04-25T20:41:44.159Z,1.80
2024-04-25T20:44:14.003Z,3.38
2024-04-25T20:46:43.832Z,2.38
2024-04-25T20:49:13.758Z,8.20
2024-04-25T20:51:45.054Z,2.90
2024-04-25T20:56:44.845Z,5.68
2024-04-25T20:59:14.681Z,4.90
2024-04-25T21:01:45.756Z,4.10
2024-04-25T21:04:15.508Z,4.07
2024-04-25T21:06:47.715Z,2.13
2024-04-25T21:09:18.771Z,4.20
2024-04-25T21:11:49.035Z,2.83
2024-04-25T21:14:18.844Z,4.03
2024-04-25T21:16:48.654Z,1.50
2024-04-25T21:19:18.409Z,6.72
2024-04-25T21:21:49.302Z,2.63
2024-04-25T21:24:18.976Z,2.45
2024-04-25T21:26:50.070Z,2.10
2024-04-25T21:29:20.069Z,9.63
2024-04-25T21:31:53.653Z,6.47
2024-04-25T21:34:24.496Z,2.15
2024-04-25T21:36:54.651Z,3.13
2024-04-25T21:39:24.402Z,1.77
2024-04-25T21:41:54.159Z,5.00
2024-04-25T21:44:23.961Z,4.07
2024-04-25T21:46:54.084Z,1.20
2024-04-25T21:49:23.984Z,6.25
2024-04-25T21:51:53.787Z,5.85
2024-04-25T21:54:23.578Z,3.15
2024-04-25T21:56:55.391Z,2.28
2024-04-25T21:59:25.393Z,3.20
2024-04-25T22:01:56.593Z,1.75
2024-04-25T22:04:27.220Z,4.93
2024-04-25T22:06:58.326Z,7.57
2024-04-25T22:09:28.415Z,2.83
2024-04-25T22:11:58.258Z,9.55
2024-04-25T22:14:28.106Z,5.18
2024-04-25T22:16:58.128Z,3.90
2024-04-25T22:19:28.011Z,7.57
2024-04-25T22:21:57.919Z,3.80
2024-04-25T22:24:24.985Z,3.28
2024-04-25T22:26:54.815Z,3.33
2024-04-25T22:29:24.764Z,1.92
2024-04-25T22:31:54.565Z,3.15
2024-04-25T22:34:24.336Z,5.70
2024-04-25T22:36:54.106Z,3.13
2024-04-25T22:39:23.994Z,5.38
2024-04-25T22:41:53.932Z,5.45
2024-04-25T22:44:23.894Z,1.40
2024-04-25T22:46:53.635Z,2.22
2024-04-25T22:49:23.644Z,5.60
2024-04-25T22:51:53.432Z,2.85
2024-04-25T22:54:23.161Z,3.42
2024-04-25T22:56:53.048Z,2.60
2024-04-25T22:59:22.909Z,4.43
2024-04-25T23:01:52.658Z,7.45
2024-04-25T23:04:22.509Z,3.25
2024-04-25T23:06:52.416Z,3.03
2024-04-25T23:09:22.458Z,4.60
2024-04-25T23:11:55.273Z,4.05
2024-04-25T23:14:28.264Z,4.68
2024-04-25T23:16:58.063Z,2.90
2024-04-25T23:19:27.916Z,6.97
2024-04-25T23:21:57.776Z,6.25
2024-04-25T23:24:27.747Z,3.40
2024-04-25T23:26:57.616Z,6.72
2024-04-25T23:29:27.497Z,4.47
2024-04-25T23:31:57.202Z,9.68
2024-04-25T23:34:26.885Z,8.68
2024-04-25T23:36:56.709Z,6.93
2024-04-25T23:39:26.579Z,5.13
2024-04-25T23:41:56.378Z,3.58
2024-04-25T23:44:26.056Z,12.68
2024-04-25T23:46:55.977Z,3.80
2024-04-25T23:49:23.617Z,4.20
2024-04-25T23:51:53.388Z,15.27
2024-04-25T23:54:23.173Z,8.70
2024-04-25T23:56:53.019Z,5.47
2024-04-25T23:59:23.027Z,7.60
